Davenport, Virginia
Current Conditions -  °F | °C
As of 3:35 PM on Monday 24 Nov 2014 (Local Time) from KJFZ Reporting Station
Scattered Clouds Scattered Clouds  
Wind Chill: 68°   Ceiling: Unl
Heat Index: 68°   Visibility: 10mi
Dew Point: 39°   Wind: 14mph
Humidity: 35%   Direction: 240°WSW
Pressure: 29.73"   Gusts: 29mph
Location:  37.1°N, 82.14°W
Report Text: KJFZ 242035Z AUTO 24012G25KT 10SM SCT065 SCT080 20/04 A2973 RMK AO2 T01990040
Loading
Personal Weather Stations






























Interactive Weather Map New forecast layout! Learn more

10-Day Weather Forecast

Advertisements
Track Severe Weather on mobile